Terminal Aerodrome Forecast
Issued by NWS Newport/Morehead City, NC

Home | Current Version | Previous Version | Graphics & Text | Print | Product List | Glossary On
Versions: 1 2 3 4 5 6 7 8 9 10 11 12 13 14 15 16 17 18 19
000
FTUS42 KMHX 281720
TAFEWN
TAF
KEWN 281720Z 2818/0118 03011KT P6SM SCT040 BKN150
     FM010600 02007KT P6SM SCT015 BKN040
     FM011000 05005KT 5SM BR BKN015 OVC025
     FM011400 07007KT P6SM BKN025 OVC040=

USA.gov is the U.S. government's official web portal to all federal, state and local government web resources and services.